Terminal Aerodrome Forecast
Issued by NWS

Home | Current Version | Previous Version | Text Only | Print | Product List | Glossary On
Versions: 1 2 3 4 5 6 7 8 9 10 11 12 13 14
137
FTUS44 KBMX 212332
TAFEET
TAF
KEET 212332Z 2200/2224 00000KT P6SM SKC
     FM220900 00000KT 5SM BR SKC
     FM221300 VRB03KT P6SM SCT040 PROB30 2220/2224 6SM -TSRA
      BKN040CB=

USA.gov is the U.S. government's official web portal to all federal, state and local government web resources and services.